Thunder radar more information blitzortung!


Radar de pluja more information rain snow radar


Visita la nostra xarxa de llocs de meteo:

Template documentation
and downloads

And another site



No particular awareness of the weather is required.    There are no Weather-warnings

Pagina Historial Weather Underground text

Diari Resum Octubre 28, 2017 Unitats:  Mètric    Imperial   Tant
« Previous Dia
SegĂźent Dia »
Diari Setmana Mensual Anual Personalitzada
  Maxima: Minima: Media:
Temperatura: 22.9 °C 11.9 °C 17.5 °C
Punt de rosada: 14.2 °C 8.4 °C 10.7 °C
Humitat: 87 % 50 % 65 %
Wind Speed: 13.0 km/h 0.0 km/h 4.6 km/h
RĂ fegues de vent: 13.0 km/h - -
Vent:- - SSE
Pression baro: 1026.0 hPa 1020.9 hPa -
Precipitacions: 0.0 mm    
Historical Graphs
 
 
Dades de taula per Octubre 28, 2017
Temps Temperatura Punt de rosada Pression baro Vent Wind Speed RĂ fegues de vent Humitat Rainfall Rate (Hourly)
00:00 13.8 °C 9.8 °C 1023.9 hPa Calm   3.2 km/h 77 % 0.0 mm
00:03 16.6 °C 14.1 °C 1023.9 hPa Calm     85 % 0.0 mm
00:08 16.5 °C 13.9 °C 1023.9 hPa ESE 2.6 km/h 2.6 km/h 85 % 0.0 mm
00:10 13.7 °C 9.7 °C 1023.9 hPa WNW 1.6 km/h 1.6 km/h 77 % 0.0 mm
00:13 16.4 °C 13.9 °C 1023.9 hPa NE 2.6 km/h 2.6 km/h 85 % 0.0 mm
00:18 16.3 °C 13.8 °C 1023.9 hPa ENE 2.6 km/h 2.6 km/h 85 % 0.0 mm
00:20 13.5 °C 9.7 °C 1023.9 hPa NW 1.6 km/h 3.2 km/h 78 % 0.0 mm
00:23 16.3 °C 13.9 °C 1023.9 hPa NE 1.9 km/h   86 % 0.0 mm
00:28 16.3 °C 13.8 °C 1023.9 hPa WSW 3.7 km/h 3.7 km/h 85 % 0.0 mm
00:30 13.5 °C 9.6 °C 1023.9 hPa NW 3.2 km/h 4.8 km/h 77 % 0.0 mm
00:33 16.3 °C 13.9 °C 1023.9 hPa Calm     86 % 0.0 mm
00:38 16.3 °C 13.9 °C 1023.9 hPa Calm     86 % 0.0 mm
00:40 13.5 °C 9.6 °C 1023.9 hPa NW 3.2 km/h 6.4 km/h 77 % 0.0 mm
00:43 16.4 °C 14.2 °C 1023.9 hPa Calm     87 % 0.0 mm
00:50 13.4 °C 9.4 °C 1023.9 hPa NNW 1.6 km/h 4.8 km/h 77 % 0.0 mm
01:00 13.5 °C 9.6 °C 1023.9 hPa NNE 1.6 km/h 3.2 km/h 77 % 0.0 mm
01:10 13.3 °C 9.3 °C 1023.9 hPa NNW 1.6 km/h 3.2 km/h 77 % 0.0 mm
01:20 13.1 °C 9.2 °C 1023.9 hPa WSW 3.2 km/h 3.2 km/h 77 % 0.0 mm
01:30 13.1 °C 9.2 °C 1023.9 hPa WSW 1.6 km/h 3.2 km/h 77 % 0.0 mm
01:40 13.0 °C 9.3 °C 1023.9 hPa WNW 1.6 km/h 6.4 km/h 78 % 0.0 mm
01:50 13.1 °C 9.2 °C 1023.9 hPa NNE 1.6 km/h 4.8 km/h 77 % 0.0 mm
02:00 13.1 °C 9.2 °C 1023.9 hPa NNE 1.6 km/h 3.2 km/h 77 % 0.0 mm
02:10 13.0 °C 9.1 °C 1023.9 hPa North 1.6 km/h 3.2 km/h 77 % 0.0 mm
02:20 12.7 °C 8.9 °C 1024.9 hPa North 1.6 km/h 3.2 km/h 78 % 0.0 mm
02:30 12.5 °C 8.8 °C 1023.9 hPa NE 3.2 km/h 3.2 km/h 78 % 0.0 mm
02:40 12.4 °C 8.7 °C 1023.9 hPa NNE 1.6 km/h 4.8 km/h 78 % 0.0 mm
02:50 12.3 °C 8.6 °C 1023.9 hPa North 1.6 km/h 3.2 km/h 78 % 0.0 mm
03:00 12.1 °C 8.6 °C 1024.9 hPa NNE 1.6 km/h 4.8 km/h 79 % 0.0 mm
03:10 12.0 °C 8.4 °C 1024.9 hPa North 1.6 km/h 1.6 km/h 79 % 0.0 mm
03:20 11.9 °C 8.4 °C 1024.9 hPa Calm   1.6 km/h 79 % 0.0 mm
03:30 11.9 °C 8.6 °C 1026.0 hPa Calm   3.2 km/h 80 % 0.0 mm
03:40 11.9 °C 8.4 °C 1026.0 hPa North 1.6 km/h 3.2 km/h 79 % 0.0 mm
03:50 12.1 °C 8.6 °C 1026.0 hPa NNW 3.2 km/h 4.8 km/h 79 % 0.0 mm
04:00 12.0 °C 8.7 °C 1026.0 hPa Calm   3.2 km/h 80 % 0.0 mm
04:10 12.5 °C 8.9 °C 1026.0 hPa WNW 3.2 km/h 3.2 km/h 79 % 0.0 mm
04:20 12.6 °C 9.1 °C 1026.0 hPa WNW 1.6 km/h 3.2 km/h 79 % 0.0 mm
04:30 13.2 °C 9.6 °C 1026.0 hPa West 1.6 km/h 3.2 km/h 79 % 0.0 mm
04:40 13.9 °C 10.1 °C 1026.0 hPa NNW 3.2 km/h 6.4 km/h 78 % 0.0 mm
04:50 14.5 °C 10.5 °C 1026.0 hPa NNE 1.6 km/h 4.8 km/h 77 % 0.0 mm
05:00 14.3 °C 10.1 °C 1026.0 hPa NNE 4.8 km/h 4.8 km/h 76 % 0.0 mm
05:10 14.3 °C 10.1 °C 1026.0 hPa NNE 3.2 km/h 6.4 km/h 76 % 0.0 mm
05:20 14.9 °C 10.7 °C 1024.9 hPa NE 3.2 km/h 4.8 km/h 76 % 0.0 mm
05:30 15.0 °C 10.6 °C 1024.9 hPa NNE 3.2 km/h 6.4 km/h 75 % 0.0 mm
10:36 15.2 °C 10.6 °C 1024.9 hPa North 7.4 km/h 7.4 km/h 74 % 0.0 mm
10:37 15.2 °C 10.6 °C 1024.9 hPa North 7.4 km/h 7.4 km/h 74 % 0.0 mm
10:38 15.3 °C 10.7 °C 1024.9 hPa NNE 3.7 km/h 3.7 km/h 74 % 0.0 mm
10:43 15.8 °C 11.2 °C 1026.0 hPa ENE 3.7 km/h 3.7 km/h 74 % 0.0 mm
10:48 15.8 °C 10.9 °C 1026.0 hPa NE 6.1 km/h 6.1 km/h 73 % 0.0 mm
10:53 15.8 °C 10.9 °C 1026.0 hPa NE 5.6 km/h 5.6 km/h 73 % 0.0 mm
10:58 16.2 °C 11.2 °C 1024.9 hPa NNE 9.0 km/h 9.0 km/h 72 % 0.0 mm
11:03 15.8 °C 10.6 °C 1024.9 hPa NNE 7.4 km/h 7.4 km/h 71 % 0.0 mm
11:08 16.1 °C 11.1 °C 1024.9 hPa NE 5.6 km/h 5.6 km/h 72 % 0.0 mm
11:13 16.2 °C 11.2 °C 1026.0 hPa ENE 7.2 km/h 7.2 km/h 72 % 0.0 mm
11:14 16.3 °C 11.1 °C 1026.0 hPa NE 7.4 km/h 7.4 km/h 71 % 0.0 mm
11:19 16.4 °C 11.1 °C 1026.0 hPa ENE 9.3 km/h 9.3 km/h 71 % 0.0 mm
11:24 16.4 °C 10.9 °C 1026.0 hPa ENE 9.3 km/h 9.3 km/h 70 % 0.0 mm
11:29 16.4 °C 10.9 °C 1026.0 hPa NNE 10.3 km/h 10.3 km/h 70 % 0.0 mm
11:34 16.3 °C 10.8 °C 1026.0 hPa ENE 9.3 km/h 9.3 km/h 70 % 0.0 mm
11:39 16.5 °C 11.0 °C 1026.0 hPa ENE 5.6 km/h 5.6 km/h 70 % 0.0 mm
11:44 16.6 °C 11.1 °C 1026.0 hPa East 9.3 km/h 9.3 km/h 70 % 0.0 mm
11:49 16.7 °C 11.0 °C 1026.0 hPa NNE 7.4 km/h 7.4 km/h 69 % 0.0 mm
11:54 17.1 °C 11.4 °C 1026.0 hPa North 5.6 km/h 5.6 km/h 69 % 0.0 mm
11:59 17.3 °C 11.3 °C 1026.0 hPa NNE 6.1 km/h 6.1 km/h 68 % 0.0 mm
12:09 17.2 °C 11.0 °C 1026.0 hPa North 7.4 km/h 7.4 km/h 67 % 0.0 mm
12:14 17.4 °C 11.2 °C 1026.0 hPa NNE 7.4 km/h 7.4 km/h 67 % 0.0 mm
12:19 17.4 °C 11.2 °C 1026.0 hPa NNE 11.1 km/h 11.1 km/h 67 % 0.0 mm
12:24 17.7 °C 11.5 °C 1026.0 hPa NNW 5.0 km/h 5.0 km/h 67 % 0.0 mm
12:29 17.8 °C 11.6 °C 1026.0 hPa NE 7.4 km/h 7.4 km/h 67 % 0.0 mm
12:34 17.8 °C 11.3 °C 1026.0 hPa ENE 9.3 km/h 9.3 km/h 66 % 0.0 mm
12:39 17.8 °C 11.3 °C 1026.0 hPa NNE 7.4 km/h 7.4 km/h 66 % 0.0 mm
12:44 18.0 °C 11.6 °C 1026.0 hPa NNE 7.4 km/h 7.4 km/h 66 % 0.0 mm
12:49 18.1 °C 11.4 °C 1026.0 hPa NE 5.6 km/h 5.6 km/h 65 % 0.0 mm
12:54 18.3 °C 11.6 °C 1024.9 hPa North 5.6 km/h 5.6 km/h 65 % 0.0 mm
12:59 18.7 °C 12.0 °C 1024.9 hPa ENE 7.4 km/h 7.4 km/h 65 % 0.0 mm
13:04 18.5 °C 11.6 °C 1024.9 hPa NNE 7.4 km/h 7.4 km/h 64 % 0.0 mm
13:09 18.6 °C 11.7 °C 1024.9 hPa ENE 7.4 km/h 7.4 km/h 64 % 0.0 mm
13:10 18.6 °C 11.7 °C 1024.9 hPa ENE 7.4 km/h 7.4 km/h 64 % 0.0 mm
13:15 19.0 °C 11.8 °C 1024.9 hPa ENE 7.4 km/h 7.4 km/h 63 % 0.0 mm
13:20 19.2 °C 12.0 °C 1024.9 hPa North 5.6 km/h 5.6 km/h 63 % 0.0 mm
13:25 19.1 °C 11.7 °C 1024.9 hPa NE 7.4 km/h 7.4 km/h 62 % 0.0 mm
13:30 19.2 °C 11.5 °C 1024.9 hPa NE 4.2 km/h 4.2 km/h 61 % 0.0 mm
13:35 19.3 °C 11.6 °C 1024.9 hPa NE 7.4 km/h 7.4 km/h 61 % 0.0 mm
13:40 19.5 °C 12.0 °C 1023.9 hPa NNE 5.6 km/h 5.6 km/h 62 % 0.0 mm
13:45 19.5 °C 11.8 °C 1023.9 hPa NE 5.6 km/h 5.6 km/h 61 % 0.0 mm
13:50 19.6 °C 11.6 °C 1023.9 hPa ENE 4.7 km/h 4.7 km/h 60 % 0.0 mm
13:55 19.7 °C 11.9 °C 1023.9 hPa NNE 4.7 km/h 4.7 km/h 61 % 0.0 mm
14:00 19.9 °C 12.2 °C 1023.9 hPa NNE 7.4 km/h 7.4 km/h 61 % 0.0 mm
14:05 20.1 °C 12.1 °C 1023.9 hPa NNE 3.2 km/h 3.2 km/h 60 % 0.0 mm
14:10 19.9 °C 11.9 °C 1023.9 hPa ESE 3.7 km/h 3.7 km/h 60 % 0.0 mm
14:15 20.1 °C 11.3 °C 1023.9 hPa NE 5.6 km/h 5.6 km/h 57 % 0.0 mm
14:20 20.2 °C 11.4 °C 1023.9 hPa ESE 5.6 km/h 6.1 km/h 57 % 0.0 mm
14:25 20.4 °C 11.6 °C 1023.9 hPa SSE 5.6 km/h 5.6 km/h 57 % 0.0 mm
14:30 20.7 °C 11.9 °C 1023.9 hPa NNW 3.5 km/h 3.5 km/h 57 % 0.0 mm
14:35 20.7 °C 11.9 °C 1023.9 hPa NNE 2.6 km/h   57 % 0.0 mm
14:40 20.8 °C 11.9 °C 1023.9 hPa West 2.3 km/h 2.3 km/h 57 % 0.0 mm
14:45 20.9 °C 12.3 °C 1023.9 hPa NW 5.6 km/h 5.6 km/h 58 % 0.0 mm
14:50 21.0 °C 11.6 °C 1023.9 hPa WSW 3.7 km/h 3.7 km/h 55 % 0.0 mm
14:55 21.2 °C 12.1 °C 1022.9 hPa SW 1.9 km/h   56 % 0.0 mm
15:00 21.6 °C 12.2 °C 1022.9 hPa South 7.9 km/h 7.9 km/h 55 % 0.0 mm
15:05 21.5 °C 11.5 °C 1022.9 hPa South 3.7 km/h 3.7 km/h 53 % 0.0 mm
15:10 21.7 °C 12.3 °C 1022.9 hPa South 9.3 km/h 9.3 km/h 55 % 0.0 mm
15:15 21.9 °C 11.6 °C 1022.9 hPa SSE 9.3 km/h 9.3 km/h 52 % 0.0 mm
15:20 21.5 °C 11.2 °C 1022.9 hPa SW 3.7 km/h 3.7 km/h 52 % 0.0 mm
15:25 21.9 °C 11.9 °C 1022.9 hPa ESE 5.6 km/h 5.6 km/h 53 % 0.0 mm
15:30 22.2 °C 12.2 °C 1022.9 hPa West 5.6 km/h 5.6 km/h 53 % 0.0 mm
15:35 22.0 °C 11.7 °C 1022.9 hPa East 3.9 km/h 3.9 km/h 52 % 0.0 mm
15:40 22.1 °C 12.1 °C 1022.9 hPa South 3.7 km/h 3.7 km/h 53 % 0.0 mm
15:45 22.2 °C 12.2 °C 1022.9 hPa SW 5.6 km/h 5.6 km/h 53 % 0.0 mm
15:50 22.2 °C 11.9 °C 1022.9 hPa ESE 5.6 km/h 5.6 km/h 52 % 0.0 mm
15:55 22.3 °C 11.9 °C 1022.9 hPa SW 6.1 km/h 6.1 km/h 52 % 0.0 mm
16:00 22.4 °C 12.1 °C 1022.9 hPa WSW 4.2 km/h 4.2 km/h 52 % 0.0 mm
16:05 21.9 °C 11.0 °C 1022.9 hPa ESE 5.6 km/h 5.6 km/h 50 % 0.0 mm
16:10 21.7 °C 11.1 °C 1022.9 hPa ENE 5.6 km/h 5.6 km/h 51 % 0.0 mm
16:15 21.8 °C 11.2 °C 1022.9 hPa ESE 9.5 km/h 9.5 km/h 51 % 0.0 mm
16:20 21.8 °C 11.2 °C 1022.9 hPa NE 1.9 km/h 1.9 km/h 51 % 0.0 mm
16:25 22.5 °C 11.8 °C 1022.9 hPa South 6.4 km/h   51 % 0.0 mm
16:30 22.7 °C 12.3 °C 1022.9 hPa SW 5.6 km/h 5.6 km/h 52 % 0.0 mm
16:35 22.8 °C 12.1 °C 1022.9 hPa SSE 3.7 km/h   51 % 0.0 mm
16:40 22.3 °C 11.4 °C 1021.9 hPa East 3.7 km/h 3.7 km/h 50 % 0.0 mm
16:45 22.0 °C 11.1 °C 1021.9 hPa SE 5.6 km/h 5.6 km/h 50 % 0.0 mm
16:50 22.2 °C 11.9 °C 1021.9 hPa WSW 5.6 km/h 5.6 km/h 52 % 0.0 mm
16:55 22.6 °C 11.9 °C 1021.9 hPa SSW 5.6 km/h 5.6 km/h 51 % 0.0 mm
17:00 22.9 °C 12.5 °C 1021.9 hPa SSE 4.7 km/h 4.7 km/h 52 % 0.0 mm
17:05 22.2 °C 11.3 °C 1021.9 hPa ESE 5.6 km/h 5.6 km/h 50 % 0.0 mm
17:10 21.8 °C 11.2 °C 1021.9 hPa East 9.3 km/h 9.3 km/h 51 % 0.0 mm
17:15 21.6 °C 11.3 °C 1021.9 hPa East 9.3 km/h 9.3 km/h 52 % 0.0 mm
17:20 21.3 °C 11.3 °C 1021.9 hPa ESE 7.4 km/h 7.4 km/h 53 % 0.0 mm
17:25 21.2 °C 11.2 °C 1021.9 hPa ESE 9.3 km/h 9.3 km/h 53 % 0.0 mm
17:30 21.3 °C 11.9 °C 1021.9 hPa SSW 5.6 km/h 5.6 km/h 55 % 0.0 mm
17:35 21.2 °C 12.1 °C 1021.9 hPa ESE 5.6 km/h 5.6 km/h 56 % 0.0 mm
17:40 21.2 °C 11.5 °C 1021.9 hPa ESE 11.1 km/h 11.1 km/h 54 % 0.0 mm
17:45 21.6 °C 11.9 °C 1021.9 hPa SW 7.4 km/h 7.4 km/h 54 % 0.0 mm
17:50 21.5 °C 11.5 °C 1021.9 hPa South 13.0 km/h 13.0 km/h 53 % 0.0 mm
17:55 21.4 °C 11.4 °C 1022.9 hPa SW 7.9 km/h 7.9 km/h 53 % 0.0 mm
18:00 21.4 °C 11.4 °C 1022.9 hPa SW 5.6 km/h 5.6 km/h 53 % 0.0 mm
18:05 21.3 °C 11.3 °C 1022.9 hPa WSW 3.7 km/h 3.7 km/h 53 % 0.0 mm
18:10 21.2 °C 11.2 °C 1022.9 hPa WSW 7.4 km/h 7.4 km/h 53 % 0.0 mm
18:15 21.1 °C 11.2 °C 1022.9 hPa WSW 3.9 km/h 3.9 km/h 53 % 0.0 mm
18:20 21.0 °C 11.1 °C 1022.9 hPa WSW 3.7 km/h 3.7 km/h 53 % 0.0 mm
18:25 20.8 °C 11.2 °C 1021.9 hPa West 7.4 km/h 7.4 km/h 54 % 0.0 mm
18:30 20.5 °C 10.9 °C 1021.9 hPa SW 7.4 km/h 7.4 km/h 54 % 0.0 mm
18:35 20.2 °C 10.6 °C 1021.9 hPa SW 4.2 km/h 4.2 km/h 54 % 0.0 mm
18:40 20.0 °C 10.7 °C 1021.9 hPa WSW 3.7 km/h 3.9 km/h 55 % 0.0 mm
18:45 19.7 °C 10.4 °C 1021.9 hPa WSW 3.7 km/h 3.7 km/h 55 % 0.0 mm
18:50 19.4 °C 10.4 °C 1021.9 hPa SW 3.7 km/h 3.7 km/h 56 % 0.0 mm
18:55 19.2 °C 10.2 °C 1021.9 hPa SW 4.2 km/h 4.2 km/h 56 % 0.0 mm
19:00 18.9 °C 10.2 °C 1021.9 hPa West 5.6 km/h 5.6 km/h 57 % 0.0 mm
19:05 18.7 °C 10.0 °C 1021.9 hPa SW 3.9 km/h 3.9 km/h 57 % 0.0 mm
19:10 18.5 °C 9.8 °C 1022.9 hPa SW 3.7 km/h 3.7 km/h 57 % 0.0 mm
19:15 18.4 °C 9.7 °C 1022.9 hPa WSW 3.7 km/h 3.9 km/h 57 % 0.0 mm
19:20 18.2 °C 9.8 °C 1022.9 hPa WSW 5.6 km/h 5.6 km/h 58 % 0.0 mm
19:25 18.1 °C 9.7 °C 1022.9 hPa SW 3.9 km/h 3.9 km/h 58 % 0.0 mm
19:30 17.9 °C 9.5 °C 1022.9 hPa SW 5.6 km/h 5.6 km/h 58 % 0.0 mm
19:35 17.8 °C 9.4 °C 1022.9 hPa WSW 3.9 km/h 3.9 km/h 58 % 0.0 mm
19:40 17.7 °C 9.6 °C 1022.9 hPa SW 4.2 km/h 4.2 km/h 59 % 0.0 mm
19:45 17.7 °C 9.6 °C 1022.9 hPa SW 4.2 km/h 4.2 km/h 59 % 0.0 mm
19:50 17.6 °C 9.5 °C 1022.9 hPa WSW 3.7 km/h 3.7 km/h 59 % 0.0 mm
19:55 17.5 °C 9.7 °C 1022.9 hPa WSW 3.7 km/h 3.7 km/h 60 % 0.0 mm
20:00 17.4 °C 9.6 °C 1022.9 hPa West 3.7 km/h 3.7 km/h 60 % 0.0 mm
20:05 17.3 °C 9.4 °C 1022.9 hPa WSW 3.7 km/h 3.9 km/h 60 % 0.0 mm
20:10 17.3 °C 9.7 °C 1022.9 hPa WSW 4.2 km/h 4.2 km/h 61 % 0.0 mm
20:15 17.1 °C 9.5 °C 1022.9 hPa WSW 3.9 km/h 3.9 km/h 61 % 0.0 mm
20:20 17.0 °C 9.4 °C 1022.9 hPa SW 5.6 km/h 5.6 km/h 61 % 0.0 mm
20:25 17.0 °C 9.7 °C 1022.9 hPa West 3.7 km/h 3.7 km/h 62 % 0.0 mm
20:30 17.0 °C 9.7 °C 1022.9 hPa SW 3.7 km/h 3.7 km/h 62 % 0.0 mm
20:35 16.9 °C 9.8 °C 1022.9 hPa WSW 3.7 km/h 3.7 km/h 63 % 0.0 mm
20:40 16.8 °C 9.9 °C 1022.9 hPa SW 4.7 km/h 4.7 km/h 64 % 0.0 mm
20:45 16.8 °C 9.9 °C 1022.9 hPa SW 9.3 km/h 9.3 km/h 64 % 0.0 mm
20:50 16.8 °C 10.2 °C 1022.9 hPa SW 3.7 km/h 3.7 km/h 65 % 0.0 mm
20:55 16.7 °C 10.1 °C 1022.9 hPa WSW 4.7 km/h 4.7 km/h 65 % 0.0 mm
21:00 16.6 °C 10.0 °C 1022.9 hPa SW 3.9 km/h 3.9 km/h 65 % 0.0 mm
21:05 16.6 °C 10.2 °C 1022.9 hPa WSW 3.7 km/h 3.7 km/h 66 % 0.0 mm
21:10 16.5 °C 10.1 °C 1022.9 hPa WSW 3.9 km/h 3.9 km/h 66 % 0.0 mm
21:15 16.5 °C 10.3 °C 1022.9 hPa West 3.7 km/h 3.7 km/h 67 % 0.0 mm
21:20 16.5 °C 10.3 °C 1022.9 hPa WSW 3.9 km/h 3.9 km/h 67 % 0.0 mm
21:25 16.5 °C 10.3 °C 1021.9 hPa WSW 3.7 km/h 3.7 km/h 67 % 0.0 mm
21:30 16.4 °C 10.5 °C 1021.9 hPa WSW 1.9 km/h 2.3 km/h 68 % 0.0 mm
21:35 16.3 °C 10.4 °C 1021.9 hPa SW 3.7 km/h 3.7 km/h 68 % 0.0 mm
21:40 16.2 °C 10.3 °C 1022.9 hPa SW 3.7 km/h 3.7 km/h 68 % 0.0 mm
21:45 16.0 °C 10.3 °C 1022.9 hPa SW 3.7 km/h 3.7 km/h 69 % 0.0 mm
21:50 16.0 °C 10.3 °C 1022.9 hPa SW 3.7 km/h 3.7 km/h 69 % 0.0 mm
21:55 15.9 °C 10.2 °C 1021.9 hPa SW 3.7 km/h 3.7 km/h 69 % 0.0 mm
22:00 15.9 °C 10.2 °C 1021.9 hPa SW 3.7 km/h 3.7 km/h 69 % 0.0 mm
22:05 15.8 °C 10.1 °C 1021.9 hPa SW 3.7 km/h 3.7 km/h 69 % 0.0 mm
22:10 15.7 °C 10.0 °C 1022.9 hPa WSW 3.7 km/h 3.7 km/h 69 % 0.0 mm
22:15 15.6 °C 9.9 °C 1022.9 hPa WSW 3.7 km/h 3.7 km/h 69 % 0.0 mm
22:20 15.5 °C 10.1 °C 1022.9 hPa Calm     70 % 0.0 mm
22:25 15.4 °C 9.9 °C 1022.9 hPa SW 3.7 km/h 3.7 km/h 70 % 0.0 mm
22:30 15.2 °C 9.8 °C 1022.9 hPa WSW 3.7 km/h 3.7 km/h 70 % 0.0 mm
22:35 15.0 °C 9.6 °C 1022.9 hPa WSW 2.6 km/h 2.6 km/h 70 % 0.0 mm
22:40 15.1 °C 9.7 °C 1021.9 hPa WSW 1.9 km/h 1.9 km/h 70 % 0.0 mm
22:45 15.2 °C 9.8 °C 1021.9 hPa WSW 3.7 km/h 3.7 km/h 70 % 0.0 mm
22:50 15.3 °C 9.8 °C 1021.9 hPa West 3.7 km/h 3.7 km/h 70 % 0.0 mm
22:55 15.4 °C 9.9 °C 1020.9 hPa WSW 1.9 km/h 1.9 km/h 70 % 0.0 mm
23:00 15.3 °C 9.8 °C 1020.9 hPa Calm     70 % 0.0 mm
23:05 15.3 °C 9.7 °C 1020.9 hPa West 7.4 km/h 7.4 km/h 69 % 0.0 mm
23:10 15.3 °C 9.4 °C 1021.9 hPa WSW 4.2 km/h 4.2 km/h 68 % 0.0 mm
23:15 15.0 °C 9.1 °C 1021.9 hPa SSW 3.7 km/h 3.7 km/h 68 % 0.0 mm
23:20 14.8 °C 8.9 °C 1021.9 hPa SW 3.7 km/h 3.7 km/h 68 % 0.0 mm
23:25 14.6 °C 8.8 °C 1021.9 hPa SW 3.7 km/h 3.7 km/h 68 % 0.0 mm
23:30 14.5 °C 8.7 °C 1021.9 hPa SW 2.3 km/h 2.3 km/h 68 % 0.0 mm
23:35 14.4 °C 8.6 °C 1021.9 hPa SW 3.5 km/h 3.5 km/h 68 % 0.0 mm
23:40 14.3 °C 8.4 °C 1021.9 hPa WSW 1.9 km/h 1.9 km/h 68 % 0.0 mm
23:45 14.2 °C 8.4 °C 1021.9 hPa Calm     68 % 0.0 mm
23:50 14.0 °C 8.4 °C 1021.9 hPa ENE 1.9 km/h 1.9 km/h 69 % 0.0 mm
23:55 13.9 °C 8.5 °C 1021.9 hPa ENE 3.7 km/h 3.7 km/h 70 % 0.0 mm
Meteo Sesrovires
Elogis d' Weather Underground - 3.5 mb

Guio original per  Jim McMurry - jmcmurry@mwt.net Adaptat per a la plantilla per  Wim van der Kuil - Leuven-Template.eu

Trobareu la nostra informacio del temps tambe a:

Weather Underground

AWEKAS